This is the latest recevied weather packets stored in our database for station/object HB9EKJ-13. If no packets are shown the sender has not sent any weather packets the latest 10 day(s).
| Time | Temp. | Humidity | Pressure | Rain* | Wind** | Luminosity | Snow |
|---|---|---|---|---|---|---|---|
| 1777540326 | 21.11° C | 14% | 1024.4 hPa | 0 mm | - | - | - |
| 1777539427 | 21.11° C | 14% | 1024.4 hPa | 0 mm | - | - | - |
| 1777538827 | 21.67° C | 14% | 1024.4 hPa | 0 mm | - | - | - |
| 1777538525 | 20.56° C | 15% | 1024.4 hPa | 0 mm | - | - | - |
| 1777537926 | 22.22° C | 14% | 1024.4 hPa | 0 mm | - | - | - |
| 1777537027 | 21.67° C | 14% | 1024.4 hPa | 0 mm | - | - | - |
| 1777536727 | 21.67° C | 14% | 1024.4 hPa | 0 mm | - | - | - |
| 1777536128 | 21.11° C | 14% | 1024.4 hPa | 0 mm | - | - | - |
| 1777535827 | 21.11° C | 14% | 1024.4 hPa | 0 mm | - | - | - |
| 1777535227 | 19.44° C | 15% | 1024.4 hPa | 0 mm | - | - | - |
| 1777534928 | 20° C | 15% | 1024.4 hPa | 0 mm | - | - | - |
| 1777534327 | 19.44° C | 15% | 1024.4 hPa | 0 mm | - | - | - |
| 1777534027 | 18.89° C | 15% | 1024.4 hPa | 0 mm | - | - | - |
| 1777533427 | 17.78° C | 16% | 1024.4 hPa | 0 mm | - | - | - |
| 1777533127 | 16.67° C | 19% | 1024.4 hPa | 0 mm | - | - | - |
| 1777532527 | 15.56° C | 24% | 1024.4 hPa | 0 mm | - | - | - |
| 1777532227 | 15.56° C | 27% | 1024.4 hPa | 0 mm | - | - | - |
| 1777531326 | 12.78° C | 36% | 1024.4 hPa | 0 mm | - | - | - |
| 1777530427 | 8.33° C | 37% | 1024.4 hPa | 0 mm | - | - | - |
| 1777529827 | 8.33° C | 37% | 1024.4 hPa | 0 mm | - | - | - |
| 1777529527 | 8.33° C | 37% | 1024.4 hPa | 0 mm | - | - | - |
| 1777528927 | 8.89° C | 38% | 1024.4 hPa | 0 mm | - | - | - |
| 1777528627 | 8.33° C | 38% | 1024.4 hPa | 0 mm | - | - | - |
| 1777528027 | 8.33° C | 38% | 1024.4 hPa | 0 mm | - | - | - |
| 1777527127 | 7.78° C | 39% | 1023.3 hPa | 0 mm | - | - | - |
* Rain latest hour (hover to see other rain measurements)
** Current wind speed in m/s (hover to see current wind gust speed)